Time;durP1;ratioP1;P1;durP2;ratioP2;P2;SDS_P1;SDS_P2;PMS_P1;PMS_P2;Temp;Humidity;BMP_temperature;BMP_pressure;BME280_temperature;BME280_humidity;BME280_pressure;Samples;Min_cycle;Max_cycle;Signal;HPM_P1;HPM_P2
2023/05/15 00:01:22;;;;;;;13.70;12.27;;;17.70;90.20;;;;;;5072978;28;20830;-57
2023/05/15 00:03:48;;;;;;;15.37;13.77;;;17.70;90.40;;;;;;5073123;28;20445;-56
2023/05/15 00:06:15;;;;;;;17.17;13.10;;;17.60;90.50;;;;;;5072918;28;20491;-57
2023/05/15 00:08:42;;;;;;;16.57;14.43;;;17.50;90.70;;;;;;5072952;28;20471;-57
2023/05/15 00:11:10;;;;;;;19.80;14.17;;;17.50;90.90;;;;;;5072800;28;20942;-57
2023/05/15 00:13:37;;;;;;;14.83;13.43;;;17.40;91.00;;;;;;5073192;28;20452;-57
2023/05/15 00:16:04;;;;;;;15.47;13.90;;;17.30;91.50;;;;;;5073066;28;20496;-57
2023/05/15 00:18:32;;;;;;;15.70;14.10;;;17.30;92.00;;;;;;5073142;28;20457;-58
2023/05/15 00:20:58;;;;;;;18.00;15.27;;;17.20;92.30;;;;;;5072680;28;21008;-58
2023/05/15 00:23:25;;;;;;;15.90;14.17;;;17.10;92.70;;;;;;5072996;28;20448;-58
2023/05/15 00:25:52;;;;;;;17.27;14.70;;;17.00;92.80;;;;;;5072983;28;20492;-58
2023/05/15 00:28:20;;;;;;;17.23;15.27;;;17.00;92.90;;;;;;5074862;28;20850;-58
2023/05/15 00:30:47;;;;;;;17.03;15.27;;;16.90;93.10;;;;;;5075351;28;20448;-58
2023/05/15 00:33:13;;;;;;;17.47;15.60;;;16.90;93.50;;;;;;5074459;28;20452;-58
2023/05/15 00:35:40;;;;;;;16.77;15.27;;;16.90;93.70;;;;;;5072774;28;20540;-58
2023/05/15 00:38:07;;;;;;;22.67;15.93;;;16.90;93.70;;;;;;5072462;28;20842;-58
2023/05/15 00:40:35;;;;;;;18.13;16.40;;;16.90;93.80;;;;;;5072787;28;20906;-58
2023/05/15 00:43:03;;;;;;;18.20;16.20;;;16.90;94.00;;;;;;5072396;28;20958;-58
2023/05/15 00:45:32;;;;;;;18.63;16.40;;;16.80;94.00;;;;;;5072636;28;20484;-58
2023/05/15 00:48:00;;;;;;;24.70;17.13;;;16.80;94.30;;;;;;5072777;28;20441;-58
2023/05/15 00:50:27;;;;;;;18.67;16.20;;;16.70;94.30;;;;;;5072775;28;20448;-58
2023/05/15 00:52:55;;;;;;;18.33;15.60;;;16.70;94.50;;;;;;5074612;28;21012;-58
2023/05/15 00:55:22;;;;;;;17.13;15.63;;;16.70;94.70;;;;;;5076562;28;20529;-58
2023/05/15 00:57:49;;;;;;;16.30;14.73;;;16.70;94.60;;;;;;5076247;28;20453;-58
2023/05/15 01:00:17;;;;;;;17.13;14.87;;;16.80;94.50;;;;;;5076232;28;20466;-58
2023/05/15 01:02:45;;;;;;;16.30;14.70;;;16.80;94.40;;;;;;5076100;28;20449;-58
2023/05/15 01:05:12;;;;;;;17.80;16.00;;;16.80;94.20;;;;;;5075932;28;20572;-58
2023/05/15 01:07:49;;;;;;;16.60;15.00;;;16.90;94.10;;;;;;5075956;28;20451;-58
2023/05/15 01:10:17;;;;;;;16.67;15.00;;;16.90;94.10;;;;;;5075654;28;20923;-58
2023/05/15 01:12:46;;;;;;;17.57;15.87;;;16.90;94.10;;;;;;5075895;28;20456;-58
2023/05/15 01:15:12;;;;;;;17.40;13.50;;;17.00;94.10;;;;;;5075918;28;20465;-58
2023/05/15 01:17:39;;;;;;;16.67;14.87;;;17.00;93.90;;;;;;5075489;28;20947;-58
2023/05/15 01:20:10;;;;;;;15.13;13.80;;;17.00;93.60;;;;;;5075406;28;20934;-58
2023/05/15 01:22:59;;;;;;;19.73;16.83;;;17.00;93.40;;;;;;5075869;28;20433;-58
2023/05/15 01:25:54;;;;;;;18.43;15.50;;;16.80;93.20;;;;;;5075591;28;20488;-58
2023/05/15 01:28:30;;;;;;;18.40;16.37;;;16.70;93.60;;;;;;5075733;28;20436;-58
2023/05/15 01:30:59;;;;;;;19.10;17.13;;;16.60;94.00;;;;;;5075657;28;20436;-58
2023/05/15 01:33:28;;;;;;;20.93;17.30;;;16.40;94.40;;;;;;5075676;28;20452;-58
2023/05/15 01:36:01;;;;;;;20.27;18.07;;;16.30;94.60;;;;;;5075522;28;20452;-58
2023/05/15 01:38:35;;;;;;;19.93;17.93;;;16.20;94.80;;;;;;5075486;28;20425;-58
2023/05/15 01:41:10;;;;;;;23.27;18.00;;;16.20;95.00;;;;;;5075534;28;20824;-58
2023/05/15 01:43:42;;;;;;;19.27;17.30;;;16.10;95.10;;;;;;5075608;28;20424;-58
2023/05/15 01:46:12;;;;;;;23.17;19.63;;;16.10;95.30;;;;;;5075348;28;20491;-58
2023/05/15 01:48:41;;;;;;;22.03;18.80;;;16.00;95.50;;;;;;5075368;28;20448;-58
2023/05/15 01:51:09;;;;;;;25.10;18.53;;;16.00;95.90;;;;;;5075328;28;20453;-58
2023/05/15 01:53:38;;;;;;;21.63;19.30;;;15.90;96.10;;;;;;5075215;28;20449;-58
2023/05/15 01:56:08;;;;;;;26.53;18.23;;;15.80;96.50;;;;;;5074808;28;20469;-58
2023/05/15 01:58:39;;;;;;;19.70;17.60;;;15.70;96.60;;;;;;5075139;28;20522;-57
2023/05/15 02:01:06;;;;;;;22.13;19.20;;;15.70;96.80;;;;;;5075177;28;20440;-57
2023/05/15 02:03:34;;;;;;;20.17;18.13;;;15.60;96.90;;;;;;5074315;28;20471;-57
2023/05/15 02:06:02;;;;;;;20.23;17.67;;;15.60;96.90;;;;;;5076649;28;20477;-57
2023/05/15 02:08:29;;;;;;;21.00;18.77;;;15.50;97.10;;;;;;5075706;28;20460;-57
2023/05/15 02:10:57;;;;;;;21.40;18.87;;;15.40;97.40;;;;;;5075715;28;20479;-57
2023/05/15 02:13:25;;;;;;;19.77;17.60;;;15.40;97.60;;;;;;5075215;28;20445;-57
2023/05/15 02:15:53;;;;;;;22.73;17.60;;;15.40;97.80;;;;;;5075143;28;20834;-57
2023/05/15 02:18:20;;;;;;;22.37;19.17;;;15.50;97.80;;;;;;5074696;28;21005;-57
2023/05/15 02:20:47;;;;;;;25.20;17.67;;;15.60;97.70;;;;;;5074776;28;20467;-57
2023/05/15 02:23:14;;;;;;;19.30;17.30;;;15.50;97.50;;;;;;5074490;28;20892;-58
2023/05/15 02:25:51;;;;;;;20.33;17.77;;;15.50;97.90;;;;;;5074714;28;20484;-57
2023/05/15 02:28:23;;;;;;;20.73;17.73;;;15.50;97.60;;;;;;5074800;28;20437;-57
2023/05/15 02:30:57;;;;;;;20.53;18.27;;;15.50;97.70;;;;;;5074638;28;20459;-57
2023/05/15 02:33:31;;;;;;;21.40;19.13;;;15.50;97.80;;;;;;5074606;28;20433;-57
2023/05/15 02:36:02;;;;;;;20.80;18.00;;;15.40;97.90;;;;;;5074259;28;20483;-57
2023/05/15 02:38:33;;;;;;;34.70;18.63;;;15.40;98.30;;;;;;5074364;28;20836;-57
2023/05/15 02:41:02;;;;;;;24.23;18.40;;;15.30;98.30;;;;;;5074372;28;20436;-57
2023/05/15 02:43:29;;;;;;;24.93;19.73;;;15.30;98.60;;;;;;5074258;28;20463;-57
2023/05/15 02:45:59;;;;;;;26.00;20.30;;;15.30;98.70;;;;;;5073779;28;20481;-57
2023/05/15 02:48:26;;;;;;;22.23;18.47;;;15.30;98.80;;;;;;5074155;28;20449;-57
2023/05/15 02:50:53;;;;;;;23.30;19.77;;;15.30;98.90;;;;;;5074290;28;20509;-57
2023/05/15 02:53:20;;;;;;;21.87;19.40;;;15.30;99.00;;;;;;5074325;28;20452;-57
2023/05/15 02:55:47;;;;;;;25.80;19.30;;;15.30;99.10;;;;;;5073899;28;20469;-57
2023/05/15 02:58:14;;;;;;;28.33;21.57;;;15.30;99.20;;;;;;5074083;28;20452;-57
2023/05/15 03:00:41;;;;;;;29.47;23.70;;;15.30;99.30;;;;;;5073567;28;20931;-57
2023/05/15 03:03:09;;;;;;;27.23;21.93;;;15.20;99.50;;;;;;5073839;28;20449;-57
2023/05/15 03:05:36;;;;;;;30.97;24.20;;;15.20;99.50;;;;;;5073781;28;20488;-57
2023/05/15 03:08:02;;;;;;;25.47;22.73;;;15.20;99.70;;;;;;5073636;28;20460;-57
2023/05/15 03:10:29;;;;;;;30.23;22.47;;;15.20;99.60;;;;;;5073769;28;20466;-57
2023/05/15 03:12:57;;;;;;;27.83;23.40;;;15.10;99.70;;;;;;5073661;28;20476;-57
2023/05/15 03:15:24;;;;;;;29.10;23.20;;;15.10;99.80;;;;;;5073248;28;20499;-57
2023/05/15 03:17:51;;;;;;;28.37;24.13;;;15.20;99.90;;;;;;5073890;28;20448;-57
2023/05/15 03:20:19;;;;;;;35.33;25.63;;;15.10;99.90;;;;;;5073657;28;20484;-57
2023/05/15 03:22:45;;;;;;;34.07;25.70;;;15.10;99.90;;;;;;5073696;28;20829;-58
2023/05/15 03:25:12;;;;;;;37.30;27.23;;;15.10;99.90;;;;;;5073472;28;20471;-57
2023/05/15 03:27:39;;;;;;;42.13;24.77;;;15.10;99.90;;;;;;5073536;28;20440;-57
2023/05/15 03:30:07;;;;;;;38.47;26.33;;;15.10;99.90;;;;;;5073122;28;20444;-57
2023/05/15 03:32:34;;;;;;;29.67;25.63;;;15.10;99.90;;;;;;5073452;28;20457;-57
2023/05/15 03:35:00;;;;;;;28.53;24.40;;;15.20;99.90;;;;;;5073079;28;20970;-57
2023/05/15 03:37:29;;;;;;;32.00;24.87;;;15.30;99.80;;;;;;5073396;28;20828;-57
2023/05/15 03:39:55;;;;;;;26.90;23.33;;;15.30;99.50;;;;;;5073155;28;20965;-57
2023/05/15 03:42:23;;;;;;;27.50;23.80;;;15.30;99.40;;;;;;5073022;28;20890;-57
2023/05/15 03:44:50;;;;;;;27.40;23.97;;;15.30;99.30;;;;;;5072939;28;21004;-57
2023/05/15 03:47:17;;;;;;;28.20;24.77;;;15.30;99.10;;;;;;5073195;28;20492;-57
2023/05/15 03:49:45;;;;;;;30.53;24.30;;;15.30;99.00;;;;;;5073231;28;20452;-57
2023/05/15 03:52:12;;;;;;;33.30;24.47;;;15.30;99.00;;;;;;5073163;28;20471;-57
2023/05/15 03:54:40;;;;;;;31.17;23.67;;;15.30;99.10;;;;;;5073115;28;20469;-57
2023/05/15 03:57:07;;;;;;;31.13;24.17;;;15.30;98.90;;;;;;5072878;28;20445;-57
2023/05/15 03:59:34;;;;;;;28.13;23.53;;;15.30;98.90;;;;;;5072866;28;20938;-57
2023/05/15 04:02:00;;;;;;;29.77;23.60;;;15.30;98.80;;;;;;5073022;28;20456;-57
2023/05/15 04:04:27;;;;;;;32.43;25.83;;;15.30;98.60;;;;;;5073116;28;20468;-57
2023/05/15 04:06:54;;;;;;;28.60;25.20;;;15.40;98.50;;;;;;5072945;28;20509;-57
2023/05/15 04:09:20;;;;;;;31.17;23.97;;;15.30;98.30;;;;;;5072841;28;20480;-57
2023/05/15 04:11:48;;;;;;;28.53;23.80;;;15.30;98.10;;;;;;5073022;28;20449;-57
2023/05/15 04:14:15;;;;;;;31.27;25.60;;;15.40;98.10;;;;;;5072865;28;20452;-57
2023/05/15 04:16:42;;;;;;;27.10;24.20;;;15.30;97.90;;;;;;5072656;28;20953;-57
2023/05/15 04:19:09;;;;;;;31.50;25.10;;;15.30;97.70;;;;;;5072634;28;20440;-57
2023/05/15 04:21:36;;;;;;;31.57;23.83;;;15.30;97.50;;;;;;5072962;28;20889;-57
2023/05/15 04:24:03;;;;;;;36.97;24.83;;;15.20;97.50;;;;;;5072869;28;20456;-57
2023/05/15 04:26:30;;;;;;;32.67;24.27;;;15.10;97.50;;;;;;5072965;28;20516;-57
2023/05/15 04:28:58;;;;;;;34.50;25.40;;;15.10;97.70;;;;;;5076737;28;20448;-57
2023/05/15 04:31:26;;;;;;;31.27;24.77;;;15.10;97.70;;;;;;5076642;28;20550;-57
2023/05/15 04:33:53;;;;;;;29.50;26.30;;;15.10;97.60;;;;;;5076757;28;20440;-57
2023/05/15 04:36:19;;;;;;;32.53;26.83;;;15.10;97.60;;;;;;5076510;28;20464;-57
2023/05/15 04:38:46;;;;;;;32.30;25.67;;;15.20;97.50;;;;;;5076592;28;20449;-57
2023/05/15 04:41:13;;;;;;;30.83;25.73;;;15.10;97.30;;;;;;5076443;28;20448;-57
2023/05/15 04:43:39;;;;;;;30.23;24.33;;;15.10;97.40;;;;;;5076481;28;20498;-57
2023/05/15 04:46:07;;;;;;;34.77;27.47;;;15.10;97.60;;;;;;5076294;28;20484;-57
2023/05/15 04:48:34;;;;;;;35.10;25.60;;;15.10;97.60;;;;;;5076027;28;20444;-57
2023/05/15 04:51:01;;;;;;;38.80;29.23;;;15.00;97.80;;;;;;5076251;28;20858;-57
2023/05/15 04:53:27;;;;;;;35.23;28.37;;;15.00;98.20;;;;;;5076315;28;20444;-57
2023/05/15 04:55:54;;;;;;;47.07;33.93;;;14.80;98.60;;;;;;5076153;28;20461;-57
2023/05/15 04:58:21;;;;;;;42.20;30.57;;;14.80;99.00;;;;;;5075874;28;20934;-57
2023/05/15 05:00:47;;;;;;;43.90;30.43;;;14.60;99.40;;;;;;5075803;28;20969;-57
2023/05/15 05:03:15;;;;;;;41.33;30.37;;;14.50;99.80;;;;;;5076170;28;20539;-57
2023/05/15 05:05:42;;;;;;;39.47;30.20;;;14.50;99.90;;;;;;5075914;28;20473;-57
2023/05/15 05:08:09;;;;;;;42.13;31.50;;;14.50;99.90;;;;;;5075860;28;20460;-57
2023/05/15 05:10:35;;;;;;;41.73;29.77;;;14.60;99.70;;;;;;5075866;28;20840;-57
2023/05/15 05:13:02;;;;;;;38.40;28.00;;;14.60;99.60;;;;;;5076006;28;20449;-57
2023/05/15 05:15:29;;;;;;;33.93;27.23;;;14.60;99.60;;;;;;5076975;28;20472;-57
2023/05/15 05:17:55;;;;;;;39.27;29.97;;;14.60;99.50;;;;;;5077577;28;20452;-57
2023/05/15 05:20:23;;;;;;;40.47;29.00;;;14.70;99.50;;;;;;5077102;28;20452;-57
2023/05/15 05:22:50;;;;;;;37.67;28.97;;;14.70;99.20;;;;;;5076457;28;20441;-57
2023/05/15 05:25:17;;;;;;;38.93;27.13;;;14.70;99.30;;;;;;5075975;28;20472;-57
2023/05/15 05:27:44;;;;;;;38.80;29.87;;;14.60;99.20;;;;;;5075987;28;20484;-57
2023/05/15 05:30:11;;;;;;;40.40;30.50;;;14.60;99.30;;;;;;5075915;28;20830;-57
2023/05/15 05:32:38;;;;;;;42.33;28.67;;;14.60;99.60;;;;;;5075773;28;20452;-57
2023/05/15 05:35:05;;;;;;;41.17;30.13;;;14.60;99.50;;;;;;5075191;28;20982;-57
2023/05/15 05:37:34;;;;;;;36.47;30.07;;;14.60;99.50;;;;;;5075523;28;20444;-57
2023/05/15 05:40:00;;;;;;;39.87;29.17;;;14.70;99.20;;;;;;5074409;28;20448;-57
2023/05/15 05:42:27;;;;;;;36.87;30.70;;;14.70;99.00;;;;;;5075426;28;20447;-57
2023/05/15 05:44:53;;;;;;;34.50;28.47;;;14.70;98.70;;;;;;5075459;28;20468;-56
2023/05/15 05:47:20;;;;;;;35.40;29.67;;;14.70;98.80;;;;;;5075320;28;20476;-57
2023/05/15 05:49:47;;;;;;;41.53;30.60;;;14.70;98.80;;;;;;5075332;28;20444;-57
2023/05/15 05:52:14;;;;;;;39.70;29.97;;;14.80;98.70;;;;;;5075300;28;20444;-57
2023/05/15 05:54:44;;;;;;;37.27;29.70;;;14.80;98.50;;;;;;5075112;28;20469;-57
2023/05/15 05:57:11;;;;;;;37.90;30.40;;;14.80;98.50;;;;;;5075469;28;20514;-57
2023/05/15 05:59:38;;;;;;;34.70;27.70;;;14.90;98.50;;;;;;5075009;28;20546;-57
2023/05/15 06:02:05;;;;;;;35.27;27.23;;;14.90;98.40;;;;;;5075134;28;20461;-57
2023/05/15 06:04:32;;;;;;;36.30;29.90;;;15.00;97.90;;;;;;5075137;28;20839;-58
2023/05/15 06:07:00;;;;;;;36.07;26.60;;;15.10;97.60;;;;;;5074890;28;20481;-57
2023/05/15 06:09:26;;;;;;;32.97;27.27;;;15.20;97.50;;;;;;5074583;28;20471;-58
2023/05/15 06:11:54;;;;;;;29.70;26.20;;;15.20;96.70;;;;;;5074926;28;20449;-58
2023/05/15 06:14:22;;;;;;;32.40;28.00;;;15.30;96.40;;;;;;5074752;28;20557;-57
2023/05/15 06:16:48;;;;;;;30.70;27.30;;;15.30;96.20;;;;;;5074805;28;20440;-57
2023/05/15 06:19:15;;;;;;;32.80;27.37;;;15.30;95.90;;;;;;5074733;28;20441;-57
2023/05/15 06:21:42;;;;;;;36.00;28.07;;;15.30;96.20;;;;;;5074750;28;20453;-57
2023/05/15 06:24:08;;;;;;;32.13;25.97;;;15.30;96.30;;;;;;5074743;28;20437;-57
2023/05/15 06:26:36;;;;;;;35.00;27.40;;;15.40;96.10;;;;;;5074274;28;20480;-57
2023/05/15 06:29:04;;;;;;;34.23;27.70;;;15.40;96.10;;;;;;5074548;28;20456;-57
2023/05/15 06:31:30;;;;;;;33.27;26.00;;;15.50;95.80;;;;;;5074495;28;20468;-57
2023/05/15 06:33:57;;;;;;;32.00;27.00;;;15.40;95.40;;;;;;5074370;28;20452;-57
2023/05/15 06:36:24;;;;;;;31.33;26.50;;;15.40;95.60;;;;;;5074338;28;20448;-58
2023/05/15 06:38:51;;;;;;;34.97;26.83;;;15.40;95.50;;;;;;5074045;28;20943;-57
2023/05/15 06:41:17;;;;;;;34.67;26.70;;;15.30;95.10;;;;;;5074270;28;20452;-57
2023/05/15 06:43:44;;;;;;;39.17;30.10;;;15.40;95.60;;;;;;5074215;28;20448;-57
2023/05/15 06:46:15;;;;;;;32.20;26.43;;;15.40;95.60;;;;;;5074084;28;20479;-57
2023/05/15 06:48:41;;;;;;;38.43;28.40;;;15.50;95.40;;;;;;5074165;28;20800;-57
2023/05/15 06:51:08;;;;;;;34.00;26.57;;;15.50;95.20;;;;;;5073630;28;20451;-57
2023/05/15 06:53:35;;;;;;;37.80;29.73;;;15.60;95.40;;;;;;5074116;28;20448;-57
2023/05/15 06:56:01;;;;;;;34.30;28.67;;;15.60;95.30;;;;;;5074044;28;20468;-57
2023/05/15 06:58:28;;;;;;;36.80;30.30;;;15.70;94.90;;;;;;5073964;28;20449;-57
2023/05/15 07:00:55;;;;;;;34.80;28.67;;;15.70;94.60;;;;;;5073880;28;20440;-57
2023/05/15 07:03:23;;;;;;;35.30;26.83;;;15.70;94.20;;;;;;5073908;28;20449;-57
2023/05/15 07:05:49;;;;;;;34.77;27.07;;;15.80;94.20;;;;;;5073735;28;20479;-57
2023/05/15 07:08:16;;;;;;;29.70;25.10;;;15.80;94.50;;;;;;5073527;28;20480;-57
2023/05/15 07:10:43;;;;;;;30.03;25.67;;;15.80;93.70;;;;;;5073780;28;20444;-57
2023/05/15 07:13:10;;;;;;;32.20;26.37;;;15.90;94.10;;;;;;5073359;28;20870;-56
2023/05/15 07:15:36;;;;;;;34.77;27.13;;;16.00;94.10;;;;;;5073649;28;20465;-57
2023/05/15 07:18:03;;;;;;;42.43;27.80;;;16.10;93.90;;;;;;5073670;28;20444;-57
2023/05/15 07:20:31;;;;;;;32.17;26.53;;;16.30;93.30;;;;;;5073564;28;20449;-57
2023/05/15 07:22:58;;;;;;;34.43;26.70;;;16.40;92.50;;;;;;5073588;28;20448;-57
2023/05/15 07:25:25;;;;;;;32.30;25.80;;;16.50;92.80;;;;;;5074061;28;20464;-57
2023/05/15 07:27:52;;;;;;;31.80;25.90;;;16.50;92.70;;;;;;5073479;28;20483;-57
2023/05/15 07:30:18;;;;;;;30.87;25.97;;;16.70;92.70;;;;;;5073494;28;20444;-57
2023/05/15 07:32:45;;;;;;;31.13;25.50;;;16.80;91.90;;;;;;5073506;28;20460;-57
2023/05/15 07:35:12;;;;;;;33.20;26.70;;;17.00;91.50;;;;;;5073049;28;21007;-57
2023/05/15 07:37:40;;;;;;;36.73;27.27;;;17.10;91.20;;;;;;5073402;28;20490;-57
2023/05/15 07:40:08;;;;;;;34.70;25.40;;;17.10;90.80;;;;;;5073377;28;20515;-57
2023/05/15 07:42:34;;;;;;;29.53;26.00;;;17.20;90.80;;;;;;5073311;28;20471;-57
2023/05/15 07:45:02;;;;;;;33.63;26.03;;;17.40;91.40;;;;;;5073283;28;20468;-57
2023/05/15 07:47:28;;;;;;;29.87;25.93;;;17.50;90.00;;;;;;5074065;28;20511;-57
2023/05/15 07:49:55;;;;;;;28.60;24.10;;;17.70;90.00;;;;;;5073303;28;20456;-57
2023/05/15 07:52:22;;;;;;;27.93;25.13;;;17.80;89.60;;;;;;5073286;28;20444;-57
2023/05/15 07:54:50;;;;;;;26.17;23.33;;;18.00;90.00;;;;;;5073181;28;20465;-57
2023/05/15 07:57:16;;;;;;;29.30;26.10;;;18.20;88.20;;;;;;5073247;28;20472;-57
2023/05/15 07:59:43;;;;;;;25.57;22.53;;;18.40;86.70;;;;;;5074284;28;20457;-57
2023/05/15 08:02:10;;;;;;;29.07;25.37;;;18.50;85.70;;;;;;5074453;28;20449;-57
2023/05/15 08:04:37;;;;;;;28.77;25.70;;;18.70;86.90;;;;;;5077253;28;20464;-57
2023/05/15 08:07:04;;;;;;;32.53;27.40;;;18.80;84.70;;;;;;5077160;28;20480;-57
2023/05/15 08:09:30;;;;;;;32.40;26.90;;;18.80;83.40;;;;;;5076892;28;20601;-57
2023/05/15 08:12:16;;;;;;;25.00;22.47;;;18.90;84.20;;;;;;5077147;28;20448;-57
2023/05/15 08:14:43;;;;;;;30.07;24.17;;;19.00;84.10;;;;;;5077138;28;20468;-57
2023/05/15 08:17:09;;;;;;;26.63;23.70;;;19.30;84.30;;;;;;5077188;28;20453;-58
2023/05/15 08:19:36;;;;;;;30.27;26.93;;;19.50;82.70;;;;;;5078156;28;20857;-57
2023/05/15 08:22:03;;;;;;;29.70;26.50;;;19.70;83.10;;;;;;5079062;28;20452;-56
2023/05/15 08:24:29;;;;;;;27.53;24.73;;;19.80;81.60;;;;;;5078179;28;20993;-57
2023/05/15 08:26:57;;;;;;;32.27;28.47;;;19.80;80.90;;;;;;5077736;28;20481;-57
2023/05/15 08:29:24;;;;;;;37.73;28.67;;;19.90;80.30;;;;;;5076748;28;20847;-57
2023/05/15 08:31:51;;;;;;;32.13;27.37;;;19.90;80.60;;;;;;5077169;28;20456;-57
2023/05/15 08:34:17;;;;;;;30.20;27.20;;;20.00;80.10;;;;;;5076733;28;20464;-57
2023/05/15 08:36:44;;;;;;;27.30;24.40;;;20.00;77.30;;;;;;5076940;28;20453;-57
2023/05/15 08:39:11;;;;;;;25.93;23.53;;;20.10;77.20;;;;;;5076590;28;20959;-57
2023/05/15 08:41:44;;;;;;;26.50;23.70;;;20.10;75.10;;;;;;5076724;28;20456;-57
2023/05/15 08:44:13;;;;;;;23.90;21.50;;;20.10;73.60;;;;;;5076576;28;20437;-57
2023/05/15 08:46:41;;;;;;;29.10;23.80;;;20.20;74.90;;;;;;5076290;28;20459;-57
2023/05/15 08:49:27;;;;;;;26.10;23.50;;;20.40;75.00;;;;;;5078445;28;20617;-57
2023/05/15 08:51:55;;;;;;;27.00;24.07;;;20.60;74.70;;;;;;5079129;28;20452;-58
2023/05/15 08:54:22;;;;;;;24.10;21.80;;;20.80;72.10;;;;;;5078442;28;20893;-58
2023/05/15 08:56:49;;;;;;;26.73;23.30;;;20.80;70.70;;;;;;5076056;28;20981;-58
2023/05/15 08:59:18;;;;;;;24.17;21.70;;;20.70;69.00;;;;;;5076268;28;20452;-57
2023/05/15 09:01:45;;;;;;;24.37;21.13;;;20.80;70.20;;;;;;5075964;28;20556;-57
2023/05/15 09:04:11;;;;;;;30.60;20.83;;;20.80;68.30;;;;;;5076256;28;20464;-57
2023/05/15 09:06:40;;;;;;;23.47;21.03;;;20.90;68.90;;;;;;5076270;28;20440;-57
2023/05/15 09:09:12;;;;;;;23.07;20.77;;;21.10;66.10;;;;;;5075731;28;20583;-57
2023/05/15 09:11:41;;;;;;;21.83;19.50;;;21.30;67.20;;;;;;5076198;28;20521;-56
2023/05/15 09:14:08;;;;;;;23.47;21.07;;;21.50;65.70;;;;;;5075764;28;20861;-57
2023/05/15 09:16:36;;;;;;;23.00;20.57;;;21.70;67.20;;;;;;5076136;28;20449;-57
2023/05/15 09:19:05;;;;;;;19.03;17.07;;;22.00;64.60;;;;;;5075684;28;20476;-57
2023/05/15 09:21:32;;;;;;;20.37;18.47;;;22.30;60.50;;;;;;5075680;28;20946;-57
2023/05/15 09:24:18;;;;;;;20.03;18.23;;;22.60;59.50;;;;;;5075906;28;20452;-57
2023/05/15 09:26:46;;;;;;;19.70;17.97;;;22.90;60.20;;;;;;5075318;28;20843;-57
2023/05/15 09:29:16;;;;;;;17.80;15.83;;;23.20;58.60;;;;;;5075562;28;20530;-57
2023/05/15 09:31:46;;;;;;;17.60;15.07;;;23.40;57.20;;;;;;5075683;28;20445;-56
2023/05/15 09:34:13;;;;;;;15.83;14.23;;;23.70;57.00;;;;;;5075168;28;20448;-57
2023/05/15 09:36:43;;;;;;;16.00;14.53;;;24.00;55.10;;;;;;5075575;28;20506;-57
2023/05/15 09:39:10;;;;;;;19.47;17.60;;;24.30;54.30;;;;;;5075541;28;20480;-57
2023/05/15 09:41:42;;;;;;;15.50;14.00;;;24.50;51.70;;;;;;5075368;28;20486;-56
2023/05/15 09:44:18;;;;;;;17.97;16.27;;;24.70;51.00;;;;;;5075062;28;20899;-56
2023/05/15 09:46:46;;;;;;;20.57;18.67;;;25.10;50.90;;;;;;5075448;28;20440;-57
2023/05/15 09:49:13;;;;;;;16.27;14.57;;;25.20;50.50;;;;;;5074945;28;21078;-56
2023/05/15 09:51:40;;;;;;;19.63;17.83;;;25.40;50.10;;;;;;5075376;28;20472;-57
2023/05/15 09:54:14;;;;;;;19.90;18.00;;;25.70;49.50;;;;;;5075215;28;20448;-56
2023/05/15 09:56:41;;;;;;;19.80;17.97;;;25.80;47.60;;;;;;5075245;28;20468;-57
2023/05/15 09:59:13;;;;;;;14.70;13.23;;;25.80;46.80;;;;;;5075164;28;20448;-57
2023/05/15 10:01:43;;;;;;;14.33;11.90;;;26.00;46.80;;;;;;5075220;28;20457;-57
2023/05/15 10:04:12;;;;;;;17.60;15.80;;;26.20;48.20;;;;;;5074984;28;20484;-57
2023/05/15 10:06:40;;;;;;;17.23;15.80;;;26.70;47.00;;;;;;5075010;28;20501;-57
2023/05/15 10:09:08;;;;;;;19.13;17.13;;;27.00;44.80;;;;;;5074666;28;20481;-57
2023/05/15 10:11:35;;;;;;;18.80;17.20;;;27.30;44.20;;;;;;5074879;28;20456;-57
2023/05/15 10:14:03;;;;;;;14.03;12.43;;;27.50;42.50;;;;;;5074797;28;20483;-57
2023/05/15 10:16:33;;;;;;;15.50;14.10;;;27.80;41.70;;;;;;5074728;28;20477;-57
2023/05/15 10:19:03;;;;;;;19.37;17.47;;;28.20;41.30;;;;;;5074782;28;20445;-57
2023/05/15 10:21:32;;;;;;;12.90;11.80;;;28.50;41.30;;;;;;5074670;28;20452;-57
2023/05/15 10:24:00;;;;;;;16.03;14.50;;;28.80;41.00;;;;;;5074413;28;20476;-57
2023/05/15 10:26:35;;;;;;;18.63;16.60;;;29.20;39.10;;;;;;5074202;28;20480;-57
2023/05/15 10:29:04;;;;;;;17.67;16.00;;;29.60;38.40;;;;;;5074490;28;20563;-57
2023/05/15 10:31:31;;;;;;;14.70;13.40;;;29.70;36.70;;;;;;5074516;28;20455;-57
2023/05/15 10:33:59;;;;;;;15.73;14.50;;;30.00;36.80;;;;;;5074309;28;20452;-57
2023/05/15 10:36:27;;;;;;;16.10;14.80;;;30.30;34.50;;;;;;5074414;28;20448;-57
2023/05/15 10:38:56;;;;;;;15.27;13.67;;;30.70;34.20;;;;;;5074309;28;20447;-57
2023/05/15 10:41:23;;;;;;;14.43;13.00;;;31.00;32.70;;;;;;5074279;28;20455;-57
2023/05/15 10:43:51;;;;;;;14.80;13.40;;;31.40;33.70;;;;;;5073888;28;20956;-57
2023/05/15 10:46:19;;;;;;;17.43;16.03;;;31.50;29.50;;;;;;5074086;28;20467;-57
2023/05/15 10:48:45;;;;;;;15.87;14.57;;;31.50;29.40;;;;;;5073713;28;21058;-57
2023/05/15 10:51:16;;;;;;;16.47;14.60;;;31.50;30.10;;;;;;5074018;28;20444;-57
2023/05/15 10:53:43;;;;;;;15.30;13.97;;;31.70;30.80;;;;;;5073980;28;20519;-57
2023/05/15 10:56:15;;;;;;;12.37;11.37;;;31.90;29.90;;;;;;5073949;28;20468;-57
2023/05/15 10:58:46;;;;;;;15.13;13.70;;;32.10;29.20;;;;;;5073940;28;20429;-57
2023/05/15 11:01:26;;;;;;;16.60;15.20;;;32.30;29.00;;;;;;5073915;28;20468;-57
2023/05/15 11:04:05;;;;;;;16.50;15.20;;;32.20;29.80;;;;;;5073860;28;20460;-57
2023/05/15 11:06:32;;;;;;;11.67;10.77;;;32.70;29.90;;;;;;5073885;28;20459;-57
2023/05/15 11:09:32;;;;;;;15.33;13.97;;;33.20;30.40;;;;;;5073346;28;20571;-57
2023/05/15 11:12:01;;;;;;;16.03;14.83;;;33.80;28.50;;;;;;5073819;28;20444;-57
2023/05/15 11:14:29;;;;;;;15.50;14.20;;;34.30;27.20;;;;;;5075032;28;20468;-57
2023/05/15 11:17:04;;;;;;;14.97;13.77;;;34.70;27.50;;;;;;5074977;28;20451;-57
2023/05/15 11:19:39;;;;;;;16.30;14.90;;;35.10;26.70;;;;;;5074357;28;20443;-57
2023/05/15 11:22:20;;;;;;;15.80;14.60;;;35.50;26.10;;;;;;5073738;28;20527;-57
2023/05/15 11:24:52;;;;;;;14.90;13.50;;;35.90;25.30;;;;;;5073770;28;20308;-57
2023/05/15 11:27:22;;;;;;;16.10;14.50;;;36.30;25.90;;;;;;5073589;28;20206;-57
2023/05/15 11:30:09;;;;;;;14.65;13.32;;;36.70;24.30;;;;;;5073424;28;20221;-57
2023/05/15 11:32:57;;;;;;;17.30;15.73;;;36.90;24.20;;;;;;5073213;28;20742;-57
2023/05/15 11:35:27;;;;;;;17.35;16.05;;;37.20;23.00;;;;;;5073121;28;20737;-57
2023/05/15 11:37:55;;;;;;;9.85;9.15;;;37.20;23.00;;;;;;5073976;28;20182;-58
2023/05/15 11:40:25;;;;;;;9.15;8.35;;;37.00;21.00;;;;;;5073132;28;20210;-57
2023/05/15 11:43:05;;;;;;;10.55;9.48;;;37.00;21.00;;;;;;5073183;28;20680;-57
2023/05/15 11:45:33;;;;;;;10.52;9.68;;;37.30;22.60;;;;;;5073427;28;20255;-57
2023/05/15 11:48:05;;;;;;;9.30;8.55;;;37.70;22.20;;;;;;5073305;28;20275;-58
2023/05/15 11:50:33;;;;;;;12.18;11.10;;;38.10;20.80;;;;;;5073295;28;20229;-58
2023/05/15 11:53:06;;;;;;;9.57;8.70;;;38.40;21.40;;;;;;5073277;28;20564;-58
2023/05/15 11:55:34;;;;;;;9.00;8.25;;;38.70;21.30;;;;;;5073289;28;20229;-58
2023/05/15 11:58:03;;;;;;;11.82;10.82;;;39.10;21.60;;;;;;5073217;28;20205;-58
2023/05/15 12:00:30;;;;;;;11.63;10.73;;;39.40;20.80;;;;;;5073258;28;20202;-58
2023/05/15 12:02:56;;;;;;;14.25;13.07;;;39.40;20.10;;;;;;5073208;28;20208;-57
2023/05/15 12:05:23;;;;;;;13.70;12.50;;;38.90;20.50;;;;;;5073139;28;20227;-58
2023/05/15 12:07:51;;;;;;;12.23;11.13;;;38.30;21.10;;;;;;5072594;28;20657;-58
2023/05/15 12:10:17;;;;;;;10.52;9.52;;;38.20;21.10;;;;;;5073175;28;20229;-58
2023/05/15 12:12:45;;;;;;;11.30;10.40;;;38.40;21.50;;;;;;5072940;28;20205;-57
2023/05/15 12:15:15;;;;;;;9.95;9.15;;;38.70;21.20;;;;;;5073091;28;20304;-58
2023/05/15 12:17:43;;;;;;;11.00;10.07;;;38.70;20.50;;;;;;5073134;28;20199;-58
2023/05/15 12:20:12;;;;;;;12.32;10.40;;;38.70;20.90;;;;;;5072731;28;20556;-57
2023/05/15 12:22:40;;;;;;;9.63;8.82;;;38.40;20.80;;;;;;5073120;28;20202;-58
2023/05/15 12:25:08;;;;;;;11.75;10.75;;;38.60;21.90;;;;;;5073054;28;20222;-58
2023/05/15 12:27:36;;;;;;;11.68;10.68;;;39.00;21.00;;;;;;5072934;28;20205;-58
2023/05/15 12:30:04;;;;;;;12.25;10.68;;;39.20;19.80;;;;;;5072900;28;20224;-58
2023/05/15 12:32:33;;;;;;;12.85;11.75;;;39.20;20.90;;;;;;5072670;28;20255;-58
2023/05/15 12:35:00;;;;;;;11.00;9.90;;;39.20;19.60;;;;;;5072851;28;20229;-58